createdAt,value
2022-09-30T06:28:37.778Z,23.04
2022-09-30T06:29:37.207Z,23.02
2022-09-30T06:30:37.450Z,23.04
2022-09-30T06:31:37.735Z,23.04
2022-09-30T06:32:38.093Z,23.04
2022-09-30T06:33:38.341Z,23.02
2022-09-30T06:34:38.610Z,23.04
2022-09-30T06:35:38.860Z,23.05
2022-09-30T06:36:39.103Z,23.05
2022-09-30T06:37:39.351Z,23.07
2022-09-30T06:38:39.611Z,23.07
2022-09-30T06:39:39.866Z,23.07
2022-09-30T06:40:40.123Z,23.07
2022-09-30T06:41:40.370Z,23.09
2022-09-30T06:42:40.615Z,23.10
2022-09-30T06:43:50.453Z,23.10
2022-09-30T06:44:51.937Z,23.13
2022-09-30T06:45:42.416Z,23.15
2022-09-30T06:46:53.246Z,23.16
2022-09-30T06:47:55.823Z,23.17
2022-09-30T06:48:46.486Z,23.20
2022-09-30T06:49:48.598Z,23.23
2022-09-30T06:50:43.220Z,23.28
2022-09-30T06:51:41.026Z,23.33
2022-09-30T06:52:40.334Z,23.36
2022-09-30T06:53:40.595Z,23.39
2022-09-30T06:54:40.876Z,23.40
2022-09-30T06:55:41.125Z,23.46
2022-09-30T06:56:41.377Z,23.48
2022-09-30T06:57:41.646Z,23.53
2022-09-30T06:58:41.906Z,23.54
2022-09-30T06:59:42.176Z,23.58
2022-09-30T07:00:42.478Z,23.60
2022-09-30T07:01:42.709Z,23.65
2022-09-30T07:02:42.968Z,23.66
2022-09-30T07:03:43.237Z,23.66
2022-09-30T07:04:43.548Z,23.57
2022-09-30T07:05:43.768Z,23.50
2022-09-30T07:06:44.028Z,23.40
2022-09-30T07:07:44.290Z,23.31
2022-09-30T07:08:44.559Z,23.20
2022-09-30T07:09:44.880Z,23.17
2022-09-30T07:10:45.099Z,23.16
2022-09-30T07:11:45.350Z,23.19
2022-09-30T07:12:45.891Z,23.19
2022-09-30T07:13:45.979Z,23.19
2022-09-30T07:14:46.191Z,23.16
2022-09-30T07:15:46.442Z,23.10
2022-09-30T07:16:46.812Z,22.98
2022-09-30T07:17:47.043Z,22.92
2022-09-30T07:18:47.305Z,22.86
2022-09-30T07:19:47.599Z,22.86
2022-09-30T07:20:47.844Z,22.85
2022-09-30T07:21:48.094Z,22.86
2022-09-30T07:22:48.417Z,22.86
2022-09-30T07:23:48.651Z,22.90
2022-09-30T07:24:48.903Z,22.92
2022-09-30T07:25:49.164Z,22.97
2022-09-30T07:26:49.424Z,22.98
2022-09-30T07:27:49.684Z,23.04
2022-09-30T07:28:49.938Z,23.07
2022-09-30T07:30:08.191Z,23.12
2022-09-30T07:30:51.709Z,23.13
2022-09-30T07:31:50.734Z,23.17
2022-09-30T07:32:50.997Z,23.22
2022-09-30T07:33:51.258Z,23.28
2022-09-30T07:34:51.497Z,23.31
2022-09-30T07:35:51.747Z,23.33
2022-09-30T07:36:51.999Z,23.38
2022-09-30T07:37:52.258Z,23.40
2022-09-30T07:38:52.579Z,23.43
2022-09-30T07:39:52.800Z,23.48
2022-09-30T07:40:53.059Z,23.51
2022-09-30T07:41:53.310Z,23.51
2022-09-30T07:42:53.569Z,23.54
2022-09-30T07:43:53.821Z,23.57
2022-09-30T07:44:54.089Z,23.57
2022-09-30T07:45:54.394Z,23.57
2022-09-30T07:46:54.632Z,23.60
2022-09-30T07:47:54.892Z,23.58
2022-09-30T07:48:55.144Z,23.61
2022-09-30T07:49:55.403Z,23.61
2022-09-30T07:50:55.652Z,23.61
2022-09-30T07:51:55.902Z,23.61
2022-09-30T07:52:56.162Z,23.63
2022-09-30T07:53:56.413Z,23.63
2022-09-30T07:54:56.670Z,23.65
2022-09-30T07:55:56.923Z,23.65
2022-09-30T07:57:09.833Z,23.66
2022-09-30T07:57:58.414Z,23.66
2022-09-30T07:58:57.725Z,23.68
2022-09-30T07:59:57.987Z,23.69
2022-09-30T08:00:58.304Z,23.69
2022-09-30T08:01:58.626Z,23.70
2022-09-30T08:02:58.847Z,23.72
2022-09-30T08:03:59.104Z,23.72
2022-09-30T08:04:59.367Z,23.75
2022-09-30T08:05:59.616Z,23.76
2022-09-30T08:06:59.869Z,23.78
2022-09-30T08:08:00.129Z,23.78
2022-09-30T08:09:00.414Z,23.80
2022-09-30T08:10:00.703Z,23.83
2022-09-30T08:11:00.981Z,23.83
2022-09-30T08:12:01.249Z,23.85
2022-09-30T08:13:04.269Z,23.85
2022-09-30T08:14:01.768Z,23.88
2022-09-30T08:15:02.019Z,23.90
2022-09-30T08:16:02.269Z,23.90
2022-09-30T08:17:02.591Z,23.90
2022-09-30T08:18:02.840Z,23.91
2022-09-30T08:19:03.091Z,23.93
2022-09-30T08:20:03.351Z,23.93
2022-09-30T08:21:03.612Z,23.95
2022-09-30T08:23:04.191Z,23.98
2022-09-30T08:24:04.459Z,24.02
2022-09-30T08:25:04.700Z,24.06
2022-09-30T08:26:04.951Z,24.08
2022-09-30T08:27:05.283Z,24.10
2022-09-30T08:28:05.505Z,24.13
2022-09-30T08:29:05.755Z,24.15
2022-09-30T08:30:06.013Z,24.18
2022-09-30T08:31:06.274Z,24.20
2022-09-30T08:32:06.580Z,24.21
2022-09-30T08:33:06.834Z,24.22
2022-09-30T08:34:07.087Z,24.25
2022-09-30T08:35:07.361Z,24.27
2022-09-30T08:36:07.587Z,24.30
2022-09-30T08:37:09.703Z,24.30
2022-09-30T08:38:08.181Z,24.34
2022-09-30T08:39:08.437Z,24.34
2022-09-30T08:40:08.696Z,24.35
2022-09-30T08:41:08.954Z,24.39
2022-09-30T08:42:32.414Z,24.37
2022-09-30T08:43:10.459Z,24.40
2022-09-30T08:44:09.778Z,24.40
2022-09-30T08:45:10.048Z,24.40
2022-09-30T08:46:10.364Z,24.42
2022-09-30T08:47:10.628Z,24.42
2022-09-30T08:48:11.225Z,24.40
2022-09-30T08:49:11.299Z,24.40
2022-09-30T08:50:11.440Z,24.39
2022-09-30T08:51:11.701Z,24.39
2022-09-30T08:52:15.967Z,24.39
2022-09-30T08:53:13.213Z,24.39
2022-09-30T08:54:12.539Z,24.40
2022-09-30T08:55:12.802Z,24.42
2022-09-30T08:56:13.092Z,24.43
2022-09-30T08:57:13.392Z,24.47
2022-09-30T08:58:14.140Z,24.47
2022-09-30T08:59:13.951Z,24.50
2022-09-30T09:00:14.223Z,24.52
2022-09-30T09:01:14.519Z,24.53
2022-09-30T09:02:17.421Z,24.57
2022-09-30T09:03:15.114Z,24.60
2022-09-30T09:04:15.452Z,24.61
2022-09-30T09:05:15.705Z,24.61
2022-09-30T09:06:15.966Z,24.62
2022-09-30T09:07:16.213Z,24.65
2022-09-30T09:08:16.473Z,24.65
2022-09-30T09:09:16.807Z,24.65
2022-09-30T09:10:17.046Z,24.64
2022-09-30T09:11:17.325Z,24.65
2022-09-30T09:12:17.663Z,24.65
2022-09-30T09:13:18.248Z,24.67
2022-09-30T09:14:18.178Z,24.65
2022-09-30T09:15:18.448Z,24.67
2022-09-30T09:16:18.729Z,24.68
2022-09-30T09:17:19.042Z,24.68
2022-09-30T09:18:23.565Z,24.68
2022-09-30T09:19:19.543Z,24.68
2022-09-30T09:20:19.827Z,24.68
2022-09-30T09:21:20.113Z,24.69
2022-09-30T09:22:24.648Z,24.69
2022-09-30T09:23:20.698Z,24.69
2022-09-30T09:24:20.960Z,24.69
2022-09-30T09:25:21.212Z,24.71
2022-09-30T09:26:21.462Z,24.71
2022-09-30T09:27:21.744Z,24.71
2022-09-30T09:28:22.967Z,24.73
2022-09-30T09:29:22.403Z,24.69
2022-09-30T09:30:22.591Z,24.69
2022-09-30T09:31:22.939Z,24.69
2022-09-30T09:32:23.171Z,24.69
2022-09-30T09:33:24.244Z,24.68
2022-09-30T09:34:23.674Z,24.68
2022-09-30T09:35:23.924Z,24.69
2022-09-30T09:36:24.185Z,24.68
2022-09-30T09:37:24.435Z,24.67
2022-09-30T09:38:24.715Z,24.67
2022-09-30T09:39:25.117Z,24.67
2022-09-30T09:40:25.236Z,24.65
2022-09-30T09:41:25.486Z,24.65
2022-09-30T09:42:25.755Z,24.67
2022-09-30T09:43:29.451Z,24.65
2022-09-30T09:44:26.327Z,24.67
2022-09-30T09:45:26.577Z,24.69
2022-09-30T09:46:26.952Z,24.73
2022-09-30T09:47:27.127Z,24.77
2022-09-30T09:48:28.189Z,24.80
2022-09-30T09:49:27.628Z,24.81
2022-09-30T09:50:27.886Z,24.84
2022-09-30T09:51:28.145Z,24.85
2022-09-30T09:52:28.390Z,24.88
2022-09-30T09:53:28.649Z,24.90
2022-09-30T09:54:28.909Z,24.90
2022-09-30T09:55:29.162Z,24.91
2022-09-30T09:56:32.298Z,24.91
2022-09-30T09:57:29.671Z,24.91
2022-09-30T09:58:30.741Z,24.91
2022-09-30T09:59:30.173Z,24.91
2022-09-30T10:00:30.432Z,24.93
2022-09-30T10:01:30.712Z,24.93
2022-09-30T10:02:31.052Z,24.91
2022-09-30T10:03:32.103Z,24.90
2022-09-30T10:04:31.547Z,24.90
2022-09-30T10:05:31.794Z,24.90
2022-09-30T10:06:32.064Z,24.88
2022-09-30T10:07:32.324Z,24.88
2022-09-30T10:08:32.594Z,24.87
2022-09-30T10:09:32.866Z,24.87
2022-09-30T10:10:51.933Z,24.88
2022-09-30T10:11:52.171Z,24.85
2022-09-30T10:12:52.422Z,24.87
2022-09-30T10:13:52.675Z,24.84
2022-09-30T10:14:52.920Z,24.83
2022-09-30T10:15:53.223Z,24.80
2022-09-30T10:16:53.513Z,24.77
2022-09-30T10:17:53.772Z,24.76
2022-09-30T10:18:54.024Z,24.71
2022-09-30T10:19:54.284Z,24.69
2022-09-30T10:20:54.537Z,24.65
2022-09-30T10:21:56.829Z,24.65
2022-09-30T10:22:55.054Z,24.62
2022-09-30T10:23:55.314Z,24.61
2022-09-30T10:24:55.556Z,24.60
2022-09-30T10:25:55.807Z,24.58
2022-09-30T10:26:56.055Z,24.57
2022-09-30T10:27:56.377Z,24.55
2022-09-30T10:28:56.536Z,24.55
2022-09-30T10:29:56.817Z,24.53
2022-09-30T10:30:57.111Z,24.53
2022-09-30T10:31:59.668Z,24.50
2022-09-30T10:32:57.647Z,24.52
2022-09-30T10:33:57.899Z,24.49
2022-09-30T10:34:58.156Z,24.46
2022-09-30T10:35:58.418Z,24.43
2022-09-30T10:36:58.668Z,24.40
2022-09-30T10:37:58.925Z,24.39
2022-09-30T10:39:01.297Z,24.37
2022-09-30T10:40:00.400Z,24.34
2022-09-30T10:40:59.729Z,24.34
2022-09-30T10:41:59.984Z,24.31
2022-09-30T10:43:00.239Z,24.31
2022-09-30T10:44:00.511Z,24.32
2022-09-30T10:45:00.762Z,24.32
2022-09-30T10:46:24.036Z,24.34
2022-09-30T10:47:02.384Z,24.35
2022-09-30T12:00:05.782Z,23.94
2022-09-30T12:01:06.031Z,23.94
2022-09-30T12:02:06.293Z,23.94
2022-09-30T12:03:10.046Z,23.94
2022-09-30T12:04:07.693Z,23.95
2022-09-30T12:05:07.112Z,23.93
2022-09-30T12:06:07.363Z,23.94
2022-09-30T12:07:07.623Z,23.93
2022-09-30T12:08:07.874Z,23.93
2022-09-30T12:09:08.123Z,23.91
2022-09-30T12:10:08.374Z,23.91
2022-09-30T12:11:08.694Z,23.90
2022-09-30T12:12:13.781Z,23.88
2022-09-30T12:13:10.174Z,23.88
2022-09-30T12:14:10.228Z,23.88
2022-09-30T12:15:09.835Z,23.87
2022-09-30T12:16:10.082Z,23.87
2022-09-30T12:17:10.417Z,23.87
2022-09-30T12:18:10.666Z,23.88
2022-09-30T12:19:11.736Z,23.90
2022-09-30T12:20:11.473Z,23.88
2022-09-30T12:21:11.490Z,23.88
2022-09-30T12:22:11.948Z,23.88
2022-09-30T12:23:12.039Z,23.88
2022-09-30T12:24:12.329Z,23.88
2022-09-30T12:25:12.611Z,23.88
2022-09-30T12:26:12.916Z,23.90
2022-09-30T12:27:13.158Z,23.88
2022-09-30T12:28:13.460Z,23.90
2022-09-30T12:29:14.138Z,23.90
2022-09-30T12:30:13.938Z,23.90
2022-09-30T12:31:14.192Z,23.87
2022-09-30T12:32:14.490Z,23.90
2022-09-30T12:33:14.880Z,23.90
2022-09-30T12:34:15.882Z,23.88
2022-09-30T12:35:15.322Z,23.88
2022-09-30T12:36:15.574Z,23.88
2022-09-30T12:37:15.821Z,23.88
2022-09-30T12:38:16.074Z,23.88
2022-09-30T12:39:16.342Z,23.88
2022-09-30T12:40:16.592Z,23.88
2022-09-30T12:41:16.853Z,23.87
2022-09-30T12:42:17.125Z,23.88
2022-09-30T12:43:17.383Z,23.90
2022-09-30T12:44:18.134Z,23.90
2022-09-30T12:45:17.943Z,23.88
2022-09-30T12:46:18.249Z,23.90
2022-09-30T12:47:18.487Z,23.88
2022-09-30T12:48:18.735Z,23.90
2022-09-30T12:49:19.003Z,23.88
2022-09-30T12:50:19.247Z,23.87
2022-09-30T12:51:19.508Z,23.84
2022-09-30T12:52:19.755Z,23.80
2022-09-30T12:53:20.006Z,23.79
2022-09-30T12:54:20.268Z,23.76
2022-09-30T12:55:20.526Z,23.75
2022-09-30T12:56:20.778Z,23.70
2022-09-30T12:57:21.027Z,23.66
2022-09-30T12:58:21.277Z,23.65
2022-09-30T12:59:22.140Z,23.57
2022-09-30T13:00:21.818Z,23.53
2022-09-30T13:01:22.118Z,23.48
2022-09-30T13:02:22.409Z,23.43
2022-09-30T13:03:22.660Z,23.42
2022-09-30T13:04:22.930Z,23.40
2022-09-30T13:05:23.203Z,23.39
2022-09-30T13:06:23.458Z,23.39
2022-09-30T13:07:23.713Z,23.36
2022-09-30T13:08:25.447Z,23.36
2022-09-30T13:09:24.254Z,23.36
2022-09-30T13:10:24.501Z,23.33
2022-09-30T13:11:24.770Z,23.32
2022-09-30T13:12:25.065Z,23.32
2022-09-30T13:13:25.295Z,23.28
2022-09-30T13:14:26.590Z,23.25
2022-09-30T13:15:25.833Z,23.25
2022-09-30T13:16:29.707Z,23.22
2022-09-30T13:17:26.364Z,23.20
2022-09-30T13:18:26.616Z,23.20
2022-09-30T13:19:27.685Z,23.22
2022-09-30T13:20:27.115Z,23.20
2022-09-30T13:21:27.365Z,23.22
2022-09-30T13:22:27.625Z,23.20
2022-09-30T13:23:27.876Z,23.22
2022-09-30T13:24:28.136Z,23.20
2022-09-30T13:25:28.387Z,23.20
2022-09-30T13:26:28.889Z,23.19
2022-09-30T13:27:28.907Z,23.16
2022-09-30T13:28:29.216Z,23.13
2022-09-30T13:29:30.138Z,23.13
2022-09-30T13:30:34.150Z,23.10
2022-09-30T13:31:30.013Z,23.07
2022-09-30T13:32:30.268Z,23.07
2022-09-30T13:33:30.527Z,23.07
2022-09-30T13:34:31.599Z,23.07
2022-09-30T13:35:31.040Z,23.04
2022-09-30T13:36:31.598Z,23.02
2022-09-30T13:37:31.548Z,23.01
2022-09-30T13:38:48.821Z,23.02
2022-09-30T13:40:43.607Z,23.07
2022-09-30T13:41:29.173Z,23.05
2022-09-30T13:42:28.474Z,23.04
2022-09-30T13:43:28.782Z,23.00
2022-09-30T13:44:29.023Z,22.97
2022-09-30T13:45:29.296Z,22.94
2022-09-30T13:46:29.940Z,22.91
2022-09-30T13:47:29.833Z,22.88
2022-09-30T13:48:30.084Z,22.88
2022-09-30T13:49:30.343Z,22.86
2022-09-30T13:50:30.616Z,22.85
2022-09-30T13:51:30.867Z,22.83
2022-09-30T13:52:31.116Z,22.80
2022-09-30T13:53:31.366Z,22.79
2022-09-30T13:54:31.616Z,22.77
2022-09-30T13:55:31.876Z,22.77
2022-09-30T13:56:32.458Z,22.77
2022-09-30T13:57:32.378Z,22.80
2022-09-30T13:58:32.628Z,22.79
2022-09-30T13:59:32.888Z,22.79
2022-09-30T14:00:33.151Z,22.80
2022-09-30T14:01:33.412Z,22.82
2022-09-30T14:02:33.669Z,22.82
2022-09-30T14:03:33.967Z,22.83
2022-09-30T14:04:34.191Z,22.80
2022-09-30T14:05:34.441Z,22.77
2022-09-30T14:06:35.141Z,22.73
2022-09-30T14:07:34.932Z,22.72
2022-09-30T14:08:35.181Z,22.68
2022-09-30T14:09:35.449Z,22.67
2022-09-30T14:10:35.701Z,22.68
2022-09-30T14:11:35.970Z,22.68
2022-09-30T14:12:36.220Z,22.72
2022-09-30T14:13:36.473Z,22.73
2022-09-30T14:14:36.722Z,22.73
2022-09-30T14:15:37.103Z,22.73
2022-09-30T14:16:37.273Z,22.73
2022-09-30T14:17:37.523Z,22.73
2022-09-30T14:18:37.784Z,22.75
2022-09-30T14:19:38.035Z,22.76
2022-09-30T14:20:38.347Z,22.76
2022-09-30T14:21:38.595Z,22.76
2022-09-30T14:22:38.845Z,22.77
2022-09-30T14:23:39.095Z,22.77
2022-09-30T14:24:39.345Z,22.79
2022-09-30T14:25:39.596Z,22.79
2022-09-30T14:26:39.845Z,22.77
2022-09-30T14:27:40.106Z,22.79
2022-09-30T14:28:40.355Z,22.77
2022-09-30T14:29:41.584Z,22.77
2022-09-30T14:30:40.897Z,22.76
2022-09-30T14:31:41.200Z,22.76
2022-09-30T14:32:41.468Z,22.75
2022-09-30T14:33:41.749Z,22.73
2022-09-30T14:34:42.059Z,22.70
2022-09-30T14:35:42.355Z,22.68
2022-09-30T14:36:42.664Z,22.65
2022-09-30T14:37:42.959Z,22.64
2022-09-30T14:38:43.257Z,22.62
2022-09-30T14:39:43.568Z,22.62
2022-09-30T14:40:43.868Z,22.62
2022-09-30T14:41:44.168Z,22.64
2022-09-30T14:42:44.458Z,22.64
2022-09-30T14:43:44.756Z,22.65
2022-09-30T14:44:45.069Z,22.67
2022-09-30T14:45:45.427Z,22.68
2022-09-30T14:46:45.609Z,22.70
2022-09-30T14:47:45.902Z,22.72
2022-09-30T14:48:46.220Z,22.72
2022-09-30T14:49:46.520Z,22.73
2022-09-30T14:50:46.823Z,22.73
2022-09-30T14:51:47.176Z,22.73
2022-09-30T14:52:47.431Z,22.72
2022-09-30T14:53:47.721Z,22.70
2022-09-30T14:54:48.019Z,22.70
2022-09-30T14:55:48.320Z,22.68
2022-09-30T14:56:48.612Z,22.67
2022-09-30T14:57:48.915Z,22.65
2022-09-30T14:58:49.233Z,22.64
2022-09-30T14:59:49.524Z,22.61
2022-09-30T15:00:49.861Z,22.60
2022-09-30T15:01:50.145Z,22.58
2022-09-30T15:02:50.444Z,22.57
2022-09-30T15:03:50.735Z,22.55
2022-09-30T15:04:51.140Z,22.55
2022-09-30T15:05:51.345Z,22.55
2022-09-30T15:06:51.647Z,22.55
2022-09-30T15:07:51.935Z,22.55
2022-09-30T15:08:52.236Z,22.54
2022-09-30T15:09:52.539Z,22.49
2022-09-30T15:10:52.845Z,22.45
2022-09-30T15:11:53.138Z,22.40
2022-09-30T15:12:53.437Z,22.37
2022-09-30T15:13:53.738Z,22.31
2022-09-30T15:14:54.106Z,22.28
2022-09-30T15:15:54.393Z,22.21
2022-09-30T15:16:54.649Z,22.17
2022-09-30T15:17:54.946Z,22.14
2022-09-30T15:18:55.240Z,22.09
2022-09-30T15:19:55.538Z,22.06
2022-09-30T15:20:55.850Z,22.02
2022-09-30T15:21:56.150Z,22.00
2022-09-30T15:22:56.489Z,21.99
2022-09-30T15:23:56.802Z,21.99
2022-09-30T15:24:57.092Z,21.98
2022-09-30T15:25:57.404Z,21.98
2022-09-30T15:26:57.720Z,21.96
2022-09-30T15:27:58.100Z,21.94
2022-09-30T15:28:58.244Z,21.94
2022-09-30T15:29:58.544Z,21.96
2022-09-30T15:30:58.842Z,21.98
2022-09-30T15:31:59.212Z,21.99
2022-09-30T15:32:59.414Z,21.99
2022-09-30T15:33:59.683Z,21.98
2022-09-30T15:34:59.983Z,21.96
2022-09-30T15:36:00.344Z,21.94
2022-09-30T15:37:00.606Z,21.92
2022-09-30T15:38:00.904Z,21.94
2022-09-30T15:39:01.205Z,21.96
2022-09-30T15:40:01.514Z,22.02
2022-09-30T15:41:01.827Z,22.12
2022-09-30T15:42:02.124Z,22.21
2022-09-30T15:43:02.426Z,22.28
2022-09-30T15:44:02.724Z,22.35
2022-09-30T15:45:03.027Z,22.40
2022-09-30T15:46:03.429Z,22.45
2022-09-30T15:47:03.570Z,22.46
2022-09-30T15:48:03.868Z,22.46
2022-09-30T15:49:04.186Z,22.45
2022-09-30T15:50:04.514Z,22.42
2022-09-30T15:51:04.707Z,22.39
2022-09-30T15:52:05.006Z,22.37
2022-09-30T15:53:05.299Z,22.36
2022-09-30T15:54:05.600Z,22.31
2022-09-30T15:55:05.908Z,22.28
2022-09-30T15:56:06.201Z,22.25
2022-09-30T15:57:06.498Z,22.25
2022-09-30T15:58:06.792Z,22.24
2022-09-30T15:59:07.122Z,22.22
2022-09-30T16:00:07.392Z,22.22
2022-09-30T16:01:07.747Z,22.21
2022-09-30T16:02:08.022Z,22.20
2022-09-30T16:03:08.341Z,22.22
2022-09-30T16:04:08.614Z,22.22
2022-09-30T16:05:09.185Z,22.25
2022-09-30T16:06:09.151Z,22.28
2022-09-30T16:07:09.454Z,22.35
2022-09-30T16:08:09.768Z,22.42
2022-09-30T16:09:10.076Z,22.47
2022-09-30T16:10:10.383Z,22.54
2022-09-30T16:11:10.682Z,22.58
2022-09-30T16:12:10.974Z,22.61
2022-09-30T16:13:11.274Z,22.64
2022-09-30T16:14:11.564Z,22.67
2022-09-30T16:15:12.288Z,22.70
2022-09-30T16:16:12.195Z,22.70
2022-09-30T16:17:12.503Z,22.72
2022-09-30T16:18:12.758Z,22.75
2022-09-30T16:19:13.067Z,22.73
2022-09-30T16:20:14.179Z,22.76
2022-09-30T16:21:13.668Z,22.76
2022-09-30T16:22:13.966Z,22.77
2022-09-30T16:23:14.259Z,22.76
2022-09-30T16:24:14.548Z,22.75
2022-09-30T16:25:15.660Z,22.73
2022-09-30T16:26:15.146Z,22.75
2022-09-30T16:27:15.442Z,22.75
2022-09-30T16:28:15.794Z,22.75
2022-09-30T16:29:17.841Z,22.75
2022-09-30T16:30:16.300Z,22.73
2022-09-30T16:31:16.625Z,22.75
2022-09-30T16:32:16.902Z,22.76
2022-09-30T16:33:17.212Z,22.75
2022-09-30T16:34:17.509Z,22.77
2022-09-30T16:35:18.193Z,22.77
2022-09-30T16:36:18.062Z,22.76
2022-09-30T16:37:18.353Z,22.75
2022-09-30T16:38:18.651Z,22.73
2022-09-30T16:39:18.960Z,22.73
2022-09-30T16:40:19.273Z,22.73
2022-09-30T16:41:19.576Z,22.72
2022-09-30T16:42:19.882Z,22.73
2022-09-30T16:43:20.183Z,22.72
2022-09-30T16:44:20.476Z,22.72
2022-09-30T16:45:21.195Z,22.72
2022-09-30T16:46:21.127Z,22.70
2022-09-30T16:47:21.336Z,22.70
2022-09-30T16:48:21.644Z,22.70
2022-09-30T16:49:21.946Z,22.70
2022-09-30T16:50:23.066Z,22.70
2022-09-30T16:51:22.565Z,22.72
2022-09-30T16:52:22.858Z,22.72
2022-09-30T16:53:23.207Z,22.72
2022-09-30T16:54:23.466Z,22.70
2022-09-30T16:55:24.606Z,22.72
2022-09-30T16:56:24.091Z,22.72
2022-09-30T16:57:24.389Z,22.72
2022-09-30T16:58:24.687Z,22.70
2022-09-30T16:59:24.980Z,22.70
2022-09-30T17:00:25.300Z,22.72
2022-09-30T17:01:25.612Z,22.70
2022-09-30T17:02:25.933Z,22.72
2022-09-30T17:03:26.190Z,22.72
2022-09-30T17:04:26.492Z,22.73
2022-09-30T17:05:27.193Z,22.72
2022-09-30T17:06:27.060Z,22.72
2022-09-30T17:07:27.360Z,22.72
2022-09-30T17:08:27.659Z,22.70
2022-09-30T17:09:27.953Z,22.70
2022-09-30T17:10:28.263Z,22.68
2022-09-30T17:11:28.563Z,22.67
2022-09-30T17:12:28.862Z,22.65
2022-09-30T17:13:29.172Z,22.64
2022-09-30T17:14:29.465Z,22.65
2022-09-30T17:15:30.304Z,22.67
